createdAt,value
2018-09-23T00:01:40.793Z,12.56
2018-09-23T00:04:09.623Z,12.51
2018-09-23T00:06:39.836Z,12.48
2018-09-23T00:09:08.929Z,12.44
2018-09-23T00:11:37.673Z,12.41
2018-09-23T00:14:07.117Z,12.39
2018-09-23T00:16:36.032Z,12.34
2018-09-23T00:19:05.234Z,12.32
2018-09-23T00:21:34.616Z,12.29
2018-09-23T00:24:03.706Z,12.25
2018-09-23T00:26:32.628Z,12.29
2018-09-23T00:29:01.397Z,12.23
2018-09-23T00:31:31.046Z,12.22
2018-09-23T00:33:59.763Z,12.23
2018-09-23T00:36:29.791Z,12.27
2018-09-23T00:38:58.751Z,12.22
2018-09-23T00:41:27.588Z,12.21
2018-09-23T00:43:56.497Z,12.20
2018-09-23T00:46:26.666Z,12.18
2018-09-23T00:48:55.600Z,12.18
2018-09-23T00:51:25.159Z,12.15
2018-09-23T00:53:54.383Z,12.17
2018-09-23T00:56:23.516Z,12.18
2018-09-23T00:58:53.026Z,12.18
2018-09-23T01:01:21.942Z,12.15
2018-09-23T01:03:50.668Z,12.18
2018-09-23T01:06:19.551Z,12.17
2018-09-23T01:08:48.411Z,12.18
2018-09-23T01:11:17.167Z,12.12
2018-09-23T01:13:46.147Z,12.13
2018-09-23T01:16:15.662Z,12.12
2018-09-23T01:18:44.755Z,12.13
2018-09-23T01:21:15.696Z,12.16
2018-09-23T01:23:44.976Z,12.20
2018-09-23T01:26:14.453Z,12.21
2018-09-23T01:28:44.583Z,12.21
2018-09-23T01:31:13.424Z,12.20
2018-09-23T01:33:42.747Z,12.16
2018-09-23T01:36:12.322Z,12.20
2018-09-23T01:38:43.537Z,12.20
2018-09-23T01:41:12.592Z,12.19
2018-09-23T01:43:41.927Z,12.19
2018-09-23T01:46:11.006Z,12.15
2018-09-23T01:48:40.238Z,12.15
2018-09-23T01:51:09.011Z,12.12
2018-09-23T01:53:37.893Z,12.11
2018-09-23T01:56:06.689Z,12.13
2018-09-23T01:58:36.007Z,12.12
2018-09-23T02:01:05.257Z,12.02
2018-09-23T02:03:34.735Z,12.04
2018-09-23T02:06:03.668Z,11.98
2018-09-23T02:08:32.313Z,12.00
2018-09-23T02:11:01.266Z,12.04
2018-09-23T02:13:30.139Z,12.01
2018-09-23T02:15:59.778Z,12.02
2018-09-23T02:18:28.582Z,12.03
2018-09-23T02:20:57.292Z,12.07
2018-09-23T02:23:27.323Z,12.06
2018-09-23T02:25:56.672Z,12.11
2018-09-23T02:28:25.923Z,12.13
2018-09-23T02:30:55.214Z,12.10
2018-09-23T02:33:23.907Z,12.08
2018-09-23T02:35:53.453Z,12.13
2018-09-23T02:38:22.515Z,12.17
2018-09-23T02:40:51.139Z,12.12
2018-09-23T02:43:20.063Z,12.09
2018-09-23T02:45:49.489Z,12.08
2018-09-23T02:48:18.923Z,12.09
2018-09-23T02:50:47.866Z,12.05
2018-09-23T02:53:17.255Z,12.08
2018-09-23T02:55:46.211Z,12.03
2018-09-23T02:58:15.547Z,12.09
2018-09-23T03:00:44.730Z,12.10
2018-09-23T03:03:13.906Z,12.12
2018-09-23T03:05:43.028Z,12.15
2018-09-23T03:08:11.783Z,12.18
2018-09-23T03:10:40.671Z,12.22
2018-09-23T03:13:09.662Z,12.22
2018-09-23T03:15:39.024Z,12.23
2018-09-23T03:18:08.355Z,12.22
2018-09-23T03:20:37.944Z,12.23
2018-09-23T03:23:06.718Z,12.21
2018-09-23T03:25:35.991Z,12.17
2018-09-23T03:28:05.469Z,12.20
2018-09-23T03:30:34.311Z,12.19
2018-09-23T03:33:02.957Z,12.21
2018-09-23T03:35:31.902Z,12.26
2018-09-23T03:38:01.268Z,12.27
2018-09-23T03:40:30.003Z,12.24
2018-09-23T03:42:58.939Z,12.25
2018-09-23T03:45:27.875Z,12.27
2018-09-23T03:47:56.633Z,12.26
2018-09-23T03:50:25.857Z,12.17
2018-09-23T03:52:54.519Z,12.19
2018-09-23T03:55:23.334Z,12.21
2018-09-23T03:57:52.885Z,12.20
2018-09-23T04:00:22.187Z,12.20
2018-09-23T04:02:50.784Z,12.23
2018-09-23T04:05:19.602Z,12.26
2018-09-23T04:07:49.433Z,12.30
2018-09-23T04:10:19.674Z,12.30
2018-09-23T04:12:48.349Z,12.34
2018-09-23T04:15:17.343Z,12.36
2018-09-23T04:17:46.850Z,12.39
2018-09-23T04:20:16.989Z,12.40
2018-09-23T04:22:50.399Z,12.40
2018-09-23T04:25:20.233Z,12.43
2018-09-23T04:27:49.655Z,12.43
2018-09-23T04:30:20.304Z,12.43
2018-09-23T04:32:50.488Z,12.43
2018-09-23T04:35:19.668Z,12.37
2018-09-23T04:37:48.995Z,12.40
2018-09-23T04:40:17.792Z,12.42
2018-09-23T04:42:46.672Z,12.43
2018-09-23T04:45:15.888Z,12.43
2018-09-23T04:47:45.128Z,12.47
2018-09-23T04:50:13.780Z,12.50
2018-09-23T04:52:42.729Z,12.55
2018-09-23T04:55:12.775Z,12.51
2018-09-23T04:57:42.239Z,12.54
2018-09-23T05:00:11.648Z,12.55
2018-09-23T05:02:40.539Z,12.56
2018-09-23T05:05:10.958Z,12.52
2018-09-23T05:07:40.100Z,12.52
2018-09-23T05:10:09.149Z,12.52
2018-09-23T05:12:37.754Z,12.50
2018-09-23T05:15:06.829Z,12.47
2018-09-23T05:17:35.879Z,12.52
2018-09-23T05:20:04.900Z,12.56
2018-09-23T05:22:34.187Z,12.62
2018-09-23T05:25:03.205Z,12.66
2018-09-23T05:27:32.774Z,12.71
2018-09-23T05:30:02.968Z,12.73
2018-09-23T05:32:32.141Z,12.69
2018-09-23T05:35:00.789Z,12.75
2018-09-23T05:37:29.514Z,12.78
2018-09-23T05:39:58.335Z,12.80
2018-09-23T05:42:27.154Z,12.81
2018-09-23T05:44:56.531Z,12.87
2018-09-23T05:47:25.628Z,12.90
2018-09-23T05:49:54.754Z,12.95
2018-09-23T05:52:23.613Z,12.99
2018-09-23T05:54:52.204Z,13.05
2018-09-23T05:57:21.113Z,13.07
2018-09-23T05:59:50.915Z,13.12
2018-09-23T06:02:19.883Z,13.19
2018-09-23T06:04:49.112Z,13.26
2018-09-23T06:07:17.833Z,13.31
2018-09-23T06:09:46.610Z,13.37
2018-09-23T06:12:16.010Z,13.47
2018-09-23T06:14:44.924Z,13.56
2018-09-23T06:17:13.877Z,13.65
2018-09-23T06:19:42.794Z,13.75
2018-09-23T06:22:11.727Z,13.80
2018-09-23T06:24:43.375Z,13.84
2018-09-23T06:27:12.080Z,13.94
2018-09-23T06:29:41.530Z,14.05
2018-09-23T06:32:10.473Z,14.18
2018-09-23T06:34:40.028Z,14.30
2018-09-23T06:37:09.093Z,14.51
2018-09-23T06:39:37.813Z,14.79
2018-09-23T06:42:06.629Z,14.98
2018-09-23T06:44:35.684Z,15.16
2018-09-23T06:47:04.921Z,15.35
2018-09-23T06:49:33.946Z,15.43
2018-09-23T06:52:04.885Z,15.58
2018-09-23T06:54:33.610Z,15.71
2018-09-23T06:57:02.773Z,15.89
2018-09-23T06:59:31.975Z,16.18
2018-09-23T07:02:00.794Z,16.44
2018-09-23T07:04:30.413Z,16.62
2018-09-23T07:06:59.237Z,16.82
2018-09-23T07:09:28.963Z,16.97
2018-09-23T07:11:58.248Z,17.05
2018-09-23T07:14:27.597Z,17.17
2018-09-23T07:16:56.453Z,17.37
2018-09-23T07:19:25.734Z,17.63
2018-09-23T07:21:54.737Z,17.82
2018-09-23T07:24:23.560Z,17.92
2018-09-23T07:26:52.473Z,18.09
2018-09-23T07:29:21.794Z,18.27
2018-09-23T07:31:51.056Z,18.37
2018-09-23T07:34:20.002Z,18.43
2018-09-23T07:36:49.210Z,18.64
2018-09-23T07:39:18.210Z,18.93
2018-09-23T07:41:46.936Z,19.62
2018-09-23T07:44:16.096Z,20.58
2018-09-23T07:46:45.379Z,21.16
2018-09-23T07:49:14.484Z,20.88
2018-09-23T07:51:44.709Z,20.34
2018-09-23T07:54:14.020Z,19.97
2018-09-23T07:56:43.073Z,19.82
2018-09-23T07:59:12.024Z,19.75
2018-09-23T08:01:40.715Z,19.80
2018-09-23T08:04:09.801Z,19.81
2018-09-23T08:06:39.044Z,19.69
2018-09-23T08:09:08.889Z,19.64
2018-09-23T08:11:39.209Z,19.54
2018-09-23T08:14:08.686Z,19.39
2018-09-23T08:16:38.010Z,19.29
2018-09-23T08:19:07.364Z,19.42
2018-09-23T08:21:36.336Z,19.60
2018-09-23T08:24:05.513Z,19.82
2018-09-23T08:26:34.465Z,20.44
2018-09-23T08:29:04.062Z,21.22
2018-09-23T08:31:33.738Z,21.94
2018-09-23T08:34:02.534Z,22.36
2018-09-23T08:36:31.700Z,22.51
2018-09-23T08:39:00.815Z,22.77
2018-09-23T08:41:29.741Z,24.18
2018-09-23T08:43:58.650Z,23.88
2018-09-23T08:46:27.531Z,22.96
2018-09-23T08:48:56.638Z,22.29
2018-09-23T08:51:25.851Z,21.59
2018-09-23T08:53:56.471Z,21.16
2018-09-23T08:56:25.417Z,20.82
2018-09-23T08:58:54.640Z,20.63
2018-09-23T09:01:23.544Z,20.56
2018-09-23T09:03:52.296Z,20.64
2018-09-23T09:06:21.421Z,20.79
2018-09-23T09:08:50.900Z,20.92
2018-09-23T09:11:19.942Z,21.05
2018-09-23T09:13:49.014Z,21.14
2018-09-23T09:16:18.551Z,21.01
2018-09-23T09:18:47.547Z,21.00
2018-09-23T09:21:16.613Z,21.09
2018-09-23T09:23:45.244Z,21.25
2018-09-23T09:26:14.215Z,21.26
2018-09-23T09:28:43.462Z,21.44
2018-09-23T09:31:12.549Z,21.88
2018-09-23T09:33:42.179Z,23.07
2018-09-23T09:36:12.238Z,23.79
2018-09-23T09:38:41.263Z,23.79
2018-09-23T09:41:10.380Z,23.83
2018-09-23T09:43:39.806Z,23.63
2018-09-23T09:46:09.966Z,23.52
2018-09-23T09:48:39.145Z,23.33
2018-09-23T09:51:08.255Z,23.12
2018-09-23T09:53:37.248Z,22.99
2018-09-23T09:56:06.097Z,23.03
2018-09-23T09:58:35.947Z,23.17
2018-09-23T10:01:05.307Z,23.43
2018-09-23T10:03:34.161Z,23.68
2018-09-23T10:06:02.842Z,24.52
2018-09-23T10:08:32.070Z,25.37
2018-09-23T10:11:01.104Z,26.17
2018-09-23T10:13:30.361Z,26.12
2018-09-23T10:15:59.640Z,26.00
2018-09-23T10:18:28.781Z,25.96
2018-09-23T10:20:58.915Z,27.10
2018-09-23T10:23:29.425Z,27.85
2018-09-23T10:25:58.012Z,27.35
2018-09-23T10:28:27.708Z,27.55
2018-09-23T10:30:56.863Z,27.91
2018-09-23T10:33:27.052Z,27.38
2018-09-23T10:35:57.250Z,27.14
2018-09-23T10:38:26.311Z,26.31
2018-09-23T10:40:56.090Z,25.54
2018-09-23T10:43:24.930Z,25.61
2018-09-23T10:45:54.056Z,26.06
2018-09-23T10:48:23.476Z,26.05
2018-09-23T10:50:52.523Z,27.02
2018-09-23T10:53:21.698Z,28.73
2018-09-23T10:55:51.040Z,30.16
2018-09-23T10:58:20.183Z,31.51
2018-09-23T11:00:49.484Z,31.00
2018-09-23T11:03:18.729Z,30.26
2018-09-23T11:05:47.924Z,30.90
2018-09-23T11:08:16.756Z,30.38
2018-09-23T11:10:46.365Z,31.15
2018-09-23T11:13:15.579Z,31.11
2018-09-23T11:15:44.736Z,31.59
2018-09-23T11:18:13.646Z,31.77
2018-09-23T11:20:42.467Z,30.59
2018-09-23T11:23:12.181Z,28.81
2018-09-23T11:25:41.031Z,27.82
2018-09-23T11:28:09.982Z,27.53
2018-09-23T11:30:39.263Z,27.23
2018-09-23T11:33:07.996Z,26.98
2018-09-23T11:35:38.684Z,26.87
2018-09-23T11:38:07.816Z,28.34
2018-09-23T11:40:37.115Z,29.01
2018-09-23T11:43:06.335Z,29.85
2018-09-23T11:45:35.339Z,31.20
2018-09-23T11:48:04.855Z,32.35
2018-09-23T11:50:34.226Z,32.28
2018-09-23T11:53:03.225Z,32.71
2018-09-23T11:55:33.643Z,31.84
2018-09-23T11:58:03.428Z,31.97
2018-09-23T12:00:32.862Z,31.76
2018-09-23T12:03:03.871Z,31.66
2018-09-23T12:05:33.211Z,30.56
2018-09-23T12:08:02.372Z,31.14
2018-09-23T12:10:31.817Z,31.98
2018-09-23T12:13:00.652Z,31.38
2018-09-23T12:15:30.073Z,30.99
2018-09-23T12:17:59.199Z,29.96
2018-09-23T12:20:28.536Z,29.22
2018-09-23T12:22:57.932Z,28.74
2018-09-23T12:25:27.026Z,28.14
2018-09-23T12:27:56.106Z,28.02
2018-09-23T12:30:25.419Z,27.17
2018-09-23T12:32:54.286Z,27.65
2018-09-23T12:35:23.165Z,27.47
2018-09-23T12:37:52.114Z,27.52
2018-09-23T12:40:20.821Z,27.56
2018-09-23T12:42:49.563Z,27.86
2018-09-23T12:45:18.651Z,28.09
2018-09-23T12:47:48.925Z,27.70
2018-09-23T12:50:18.215Z,27.99
2018-09-23T12:52:47.532Z,29.17
2018-09-23T12:55:16.521Z,30.25
2018-09-23T12:57:45.855Z,29.90
2018-09-23T13:00:14.825Z,30.11
2018-09-23T13:02:44.289Z,31.75
2018-09-23T13:05:13.198Z,32.49
2018-09-23T13:07:41.891Z,30.86
2018-09-23T13:10:10.984Z,31.99
2018-09-23T13:12:39.843Z,32.42
2018-09-23T13:15:08.695Z,33.61
2018-09-23T13:17:37.826Z,33.96
2018-09-23T13:20:06.920Z,34.34
2018-09-23T13:22:36.611Z,34.40
2018-09-23T13:25:07.652Z,34.23
2018-09-23T13:27:36.640Z,34.07
2018-09-23T13:30:05.796Z,32.72
2018-09-23T13:32:35.029Z,31.16
2018-09-23T13:35:04.842Z,29.67
2018-09-23T13:37:34.246Z,29.14
2018-09-23T13:40:03.580Z,28.77
2018-09-23T13:42:33.014Z,28.58
2018-09-23T13:45:01.984Z,28.03
2018-09-23T13:47:32.373Z,27.24
2018-09-23T13:50:01.408Z,26.88
2018-09-23T13:52:30.311Z,26.73
2018-09-23T13:55:00.893Z,27.22
2018-09-23T13:57:30.143Z,28.11
2018-09-23T13:59:59.641Z,28.60
2018-09-23T14:02:28.881Z,29.09
2018-09-23T14:04:58.003Z,29.19
2018-09-23T14:07:28.532Z,29.95
2018-09-23T14:09:58.485Z,30.36
2018-09-23T14:12:28.695Z,30.99
2018-09-23T14:14:58.017Z,31.24
2018-09-23T14:17:27.732Z,30.16
2018-09-23T14:19:57.383Z,29.13
2018-09-23T14:22:26.536Z,28.40
2018-09-23T14:24:55.790Z,28.27
2018-09-23T14:27:26.234Z,27.79
2018-09-23T14:29:55.936Z,27.49
2018-09-23T14:32:25.914Z,27.43
2018-09-23T14:34:55.334Z,26.76
2018-09-23T14:37:25.374Z,26.42
2018-09-23T14:39:54.983Z,26.15
2018-09-23T14:42:24.193Z,26.36
2018-09-23T14:44:53.377Z,26.52
2018-09-23T14:47:22.704Z,26.34
2018-09-23T14:49:54.164Z,26.17
2018-09-23T14:52:23.579Z,25.83
2018-09-23T14:54:53.917Z,25.87
2018-09-23T14:57:24.268Z,25.79
2018-09-23T14:59:54.367Z,25.70
2018-09-23T15:02:22.708Z,25.65
2018-09-23T15:04:52.014Z,25.66
2018-09-23T15:07:21.326Z,25.68
2018-09-23T15:09:51.371Z,25.56
2018-09-23T15:12:21.026Z,25.51
2018-09-23T15:14:51.220Z,25.63
2018-09-23T15:17:21.001Z,25.56
2018-09-23T15:19:51.126Z,25.66
2018-09-23T15:22:21.531Z,25.55
2018-09-23T15:24:50.727Z,25.49
2018-09-23T15:27:20.488Z,25.46
2018-09-23T15:29:49.845Z,25.36
2018-09-23T15:32:20.102Z,25.26
2018-09-23T15:34:49.473Z,25.11
2018-09-23T15:37:18.638Z,25.11
2018-09-23T15:39:47.800Z,25.20
2018-09-23T15:42:17.260Z,25.23
2018-09-23T15:44:46.490Z,25.18
2018-09-23T15:47:15.621Z,25.10
2018-09-23T15:49:44.896Z,25.04
2018-09-23T15:52:14.507Z,25.05
2018-09-23T15:54:45.421Z,25.06
2018-09-23T15:57:14.586Z,24.98
2018-09-23T15:59:44.467Z,24.92
2018-09-23T16:02:14.671Z,24.79
2018-09-23T16:04:43.787Z,24.78
2018-09-23T16:07:14.408Z,24.73
2018-09-23T16:09:43.589Z,24.59
2018-09-23T16:12:13.687Z,24.42
2018-09-23T16:14:43.202Z,24.29
2018-09-23T16:17:12.897Z,24.19
2018-09-23T16:19:42.373Z,24.14
2018-09-23T16:22:11.522Z,24.12
2018-09-23T16:24:40.676Z,24.10
2018-09-23T16:27:09.848Z,24.06
2018-09-23T16:29:39.032Z,24.01
2018-09-23T16:32:08.397Z,23.95
2018-09-23T16:34:38.498Z,23.91
2018-09-23T16:37:07.719Z,23.80
2018-09-23T16:39:37.924Z,23.74
2018-09-23T16:42:07.751Z,23.69
2018-09-23T16:44:37.324Z,23.70
2018-09-23T16:47:06.387Z,23.68
2018-09-23T16:49:35.728Z,23.67
2018-09-23T16:52:05.058Z,23.70
2018-09-23T16:54:34.389Z,23.69
2018-09-23T16:57:04.597Z,23.65
2018-09-23T16:59:33.577Z,23.62
2018-09-23T17:02:02.694Z,23.57
2018-09-23T17:04:32.018Z,23.55
2018-09-23T17:07:01.220Z,23.53
2018-09-23T17:09:30.516Z,23.37
2018-09-23T17:12:00.416Z,21.91
2018-09-23T17:14:29.949Z,19.78
2018-09-23T17:16:59.458Z,18.37
2018-09-23T17:19:28.559Z,17.66
2018-09-23T17:21:57.512Z,17.47
2018-09-23T17:24:26.826Z,17.45
2018-09-23T17:26:56.919Z,17.10
2018-09-23T17:29:26.288Z,17.02
2018-09-23T17:31:55.432Z,17.04
2018-09-23T17:34:25.683Z,16.94
2018-09-23T17:36:54.739Z,16.84
2018-09-23T17:39:24.037Z,16.70
2018-09-23T17:41:53.243Z,16.70
2018-09-23T17:44:22.333Z,16.63
2018-09-23T17:46:51.644Z,16.44
2018-09-23T17:49:20.954Z,16.36
2018-09-23T17:51:50.175Z,16.34
2018-09-23T17:54:19.414Z,16.33
2018-09-23T17:56:49.179Z,16.27
2018-09-23T17:59:18.130Z,16.13
2018-09-23T18:01:47.083Z,16.00
2018-09-23T18:04:16.167Z,15.92
2018-09-23T18:06:45.442Z,15.80
2018-09-23T18:09:14.554Z,15.86
2018-09-23T18:11:44.096Z,15.81
2018-09-23T18:14:13.259Z,15.79
2018-09-23T18:16:42.306Z,15.77
2018-09-23T18:19:11.696Z,15.69
2018-09-23T18:21:40.754Z,15.63
2018-09-23T18:24:09.895Z,15.62
2018-09-23T18:26:39.291Z,15.58
2018-09-23T18:29:08.470Z,15.53
2018-09-23T18:31:38.566Z,15.43
2018-09-23T18:34:07.852Z,15.36
2018-09-23T18:36:37.064Z,15.29
2018-09-23T18:39:08.264Z,15.33
2018-09-23T18:41:37.337Z,15.32
2018-09-23T18:44:06.723Z,15.27
2018-09-23T18:46:35.924Z,15.20
2018-09-23T18:49:05.458Z,15.25
2018-09-23T18:51:34.424Z,15.26
2018-09-23T18:54:08.639Z,15.26
2018-09-23T18:56:37.681Z,15.22
2018-09-23T18:59:06.819Z,15.23
2018-09-23T19:01:37.093Z,14.76
2018-09-23T19:04:06.416Z,14.36
2018-09-23T19:06:35.587Z,13.92
2018-09-23T19:09:07.695Z,13.69
2018-09-23T19:11:37.093Z,13.48
2018-09-23T19:14:06.657Z,13.46
2018-09-23T19:16:36.459Z,13.29
2018-09-23T19:19:06.647Z,13.23
2018-09-23T19:21:36.688Z,13.14
2018-09-23T19:24:05.956Z,13.09
2018-09-23T19:26:35.808Z,13.08
2018-09-23T19:29:04.649Z,12.99
2018-09-23T19:31:34.645Z,13.01
2018-09-23T19:34:04.013Z,13.00
2018-09-23T19:36:33.119Z,12.96
2018-09-23T19:39:03.265Z,12.94
2018-09-23T19:41:32.298Z,12.89
2018-09-23T19:44:01.795Z,12.85
2018-09-23T19:46:30.953Z,12.79
2018-09-23T19:49:00.564Z,12.66
2018-09-23T19:51:29.444Z,12.66
2018-09-23T19:53:58.529Z,12.55
2018-09-23T19:56:27.810Z,12.57
2018-09-23T19:58:57.139Z,12.61
2018-09-23T20:01:26.249Z,12.66
2018-09-23T20:03:55.594Z,12.55
2018-09-23T20:06:24.786Z,12.57
2018-09-23T20:08:54.570Z,12.52
2018-09-23T20:11:23.393Z,12.48
2018-09-23T20:13:52.507Z,12.44
2018-09-23T20:16:22.849Z,12.36
2018-09-23T20:18:51.818Z,12.39
2018-09-23T20:21:20.778Z,12.42
2018-09-23T20:23:50.909Z,12.34
2018-09-23T20:26:19.991Z,12.39
2018-09-23T20:28:49.759Z,12.33
2018-09-23T20:31:18.833Z,12.30
2018-09-23T20:33:47.898Z,12.34
2018-09-23T20:36:17.331Z,12.34
2018-09-23T20:38:46.447Z,12.25
2018-09-23T20:41:15.664Z,12.18
2018-09-23T20:43:45.002Z,12.12
2018-09-23T20:46:14.095Z,12.10
2018-09-23T20:48:43.870Z,11.99
2018-09-23T20:51:12.828Z,11.98
2018-09-23T20:53:41.888Z,11.97
2018-09-23T20:56:10.724Z,11.96
2018-09-23T20:58:41.247Z,11.98
2018-09-23T21:01:10.213Z,11.99
2018-09-23T21:03:39.661Z,11.99
2018-09-23T21:06:08.851Z,11.99
2018-09-23T21:08:38.127Z,11.89
2018-09-23T21:11:07.412Z,11.90
2018-09-23T21:13:36.555Z,11.87
2018-09-23T21:16:05.772Z,11.90
2018-09-23T21:18:35.105Z,11.87
2018-09-23T21:21:04.240Z,11.84
2018-09-23T21:23:33.548Z,11.77
2018-09-23T21:26:02.650Z,11.64
2018-09-23T21:28:31.530Z,11.60
2018-09-23T21:31:01.164Z,11.45
2018-09-23T21:33:30.365Z,11.37
2018-09-23T21:35:59.539Z,11.36
2018-09-23T21:38:28.393Z,11.32
2018-09-23T21:40:58.092Z,11.27
2018-09-23T21:43:27.008Z,11.28
2018-09-23T21:45:55.589Z,11.30
2018-09-23T21:48:24.499Z,11.32
2018-09-23T21:50:53.919Z,11.33
2018-09-23T21:53:22.770Z,11.29
2018-09-23T21:55:51.410Z,11.22
2018-09-23T21:58:20.299Z,11.11
2018-09-23T22:00:50.253Z,11.08
2018-09-23T22:03:19.105Z,10.99
2018-09-23T22:05:48.370Z,10.89
2018-09-23T22:08:17.531Z,10.84
2018-09-23T22:10:46.839Z,10.79
2018-09-23T22:13:16.946Z,10.67
2018-09-23T22:15:46.154Z,10.65
2018-09-23T22:18:15.359Z,10.59
2018-09-23T22:20:44.813Z,10.52
2018-09-23T22:23:13.703Z,10.47
2018-09-23T22:25:43.029Z,10.46
2018-09-23T22:28:12.154Z,10.46
2018-09-23T22:30:41.703Z,10.53
2018-09-23T22:33:10.859Z,10.65
2018-09-23T22:35:39.579Z,10.70
2018-09-23T22:38:08.294Z,10.76
2018-09-23T22:40:37.368Z,10.75
2018-09-23T22:43:06.973Z,10.78
2018-09-23T22:45:36.176Z,10.77
2018-09-23T22:48:04.999Z,10.77
2018-09-23T22:50:33.883Z,10.78
2018-09-23T22:53:03.445Z,10.78
2018-09-23T22:55:33.684Z,10.83
2018-09-23T22:58:02.568Z,10.90
2018-09-23T23:00:32.310Z,10.86
2018-09-23T23:03:01.107Z,10.94
2018-09-23T23:05:29.779Z,10.90
2018-09-23T23:07:58.510Z,10.97
2018-09-23T23:10:27.853Z,11.01
2018-09-23T23:12:56.602Z,11.01
2018-09-23T23:15:25.544Z,10.96
2018-09-23T23:17:55.375Z,10.95
2018-09-23T23:20:25.005Z,11.00
2018-09-23T23:22:53.870Z,10.99
2018-09-23T23:25:22.793Z,10.99
2018-09-23T23:27:51.666Z,11.00
2018-09-23T23:30:20.627Z,10.92
2018-09-23T23:32:50.003Z,10.93
2018-09-23T23:35:19.379Z,10.93
2018-09-23T23:37:48.540Z,10.90
2018-09-23T23:40:17.695Z,10.86
2018-09-23T23:42:46.629Z,10.81
2018-09-23T23:45:17.195Z,10.78
2018-09-23T23:47:46.336Z,10.73
2018-09-23T23:50:15.736Z,10.71
2018-09-23T23:52:45.663Z,10.72
2018-09-23T23:55:14.401Z,10.75
2018-09-23T23:57:43.154Z,10.68
